Terminal Aerodrome Forecast
Issued by NWS Grand Forks, ND

Home | Current Version | Previous Version | Graphics & Text | Print | Product List | Glossary On
Versions: 1 2 3 4 5 6 7 8 9 10 11 12 13 14 15 16 17 18 19 20 21 22 23 24 25 26
370
FTUS43 KFGF 062232 AAC
TAFFAR
TAF AMD
KFAR 062232Z 0623/0718 19009KT P6SM VCSH SCT040 BKN080
     FM062330 20015G25KT P6SM SCT035 BKN070
     FM070300 24018G28KT P6SM -SN BKN025 OVC050
     FM071000 26022G29KT 2SM -SN OVC012
     FM071600 30025G40KT 1/4SM SN BLSN BKN008 OVC010=

USA.gov is the U.S. government's official web portal to all federal, state and local government web resources and services.